Time;durP1;ratioP1;P1;durP2;ratioP2;P2;SDS_P1;SDS_P2;PMS_P1;PMS_P2;Temp;Humidity;BMP_temperature;BMP_pressure;BME280_temperature;BME280_humidity;BME280_pressure;Samples;Min_cycle;Max_cycle;Signal;HPM_P1;HPM_P2
2023/07/05 00:02:17;;;;;;;3.72;1.90;;;;;;;20.99;82.14;99783.63;4992077;28;20038;-73
2023/07/05 00:04:45;;;;;;;3.13;1.98;;;;;;;21.00;81.90;99780.78;4969909;28;20132;-74
2023/07/05 00:07:12;;;;;;;3.20;2.33;;;;;;;20.88;82.63;99776.66;4961266;28;20046;-73
2023/07/05 00:09:40;;;;;;;3.72;2.25;;;;;;;20.94;83.23;99780.56;4976754;28;20532;-73
2023/07/05 00:12:07;;;;;;;3.50;2.00;;;;;;;20.92;83.65;99785.25;4973692;28;20125;-73
2023/07/05 00:14:34;;;;;;;3.83;2.10;;;;;;;20.87;84.74;99790.25;4972627;28;20063;-74
2023/07/05 00:17:02;;;;;;;2.90;2.08;;;;;;;20.80;85.76;99791.84;4967681;28;20083;-74
2023/07/05 00:19:29;;;;;;;3.85;2.17;;;;;;;20.73;87.83;99783.56;4972824;28;20071;-74
2023/07/05 00:21:56;;;;;;;3.15;2.40;;;;;;;20.62;91.53;99781.91;4958154;28;20054;-72
2023/07/05 00:24:23;;;;;;;3.88;2.47;;;;;;;20.48;96.21;99784.25;4971567;28;20069;-74
2023/07/05 00:26:49;;;;;;;4.47;2.38;;;;;;;20.47;98.76;99818.38;4962961;28;20039;-72
2023/07/05 00:29:16;;;;;;;4.20;2.30;;;;;;;20.36;100.00;99833.81;4966853;28;20061;-74
2023/07/05 00:31:43;;;;;;;7.38;2.97;;;;;;;20.28;100.00;99875.75;4981857;28;20531;-73
2023/07/05 00:34:09;;;;;;;6.78;3.50;;;;;;;19.82;100.00;99856.91;4986580;28;20137;-72
2023/07/05 00:36:36;;;;;;;10.95;3.28;;;;;;;19.49;100.00;99809.84;4965293;28;20108;-72
2023/07/05 00:39:03;;;;;;;6.72;3.00;;;;;;;19.02;100.00;99798.13;4969004;28;20074;-72
2023/07/05 00:41:30;;;;;;;6.32;3.60;;;;;;;18.47;100.00;99777.09;4980400;28;20055;-73
2023/07/05 00:43:56;;;;;;;5.53;3.08;;;;;;;18.36;100.00;99769.19;4987133;28;20047;-72
2023/07/05 00:46:26;;;;;;;5.38;2.80;;;;;;;18.21;100.00;99752.63;4973322;28;20073;-72
2023/07/05 00:49:04;;;;;;;5.32;2.97;;;;;;;18.16;100.00;99751.31;4981972;28;20047;-72
2023/07/05 00:52:06;;;;;;;4.57;2.90;;;;;;;17.94;100.00;99740.81;4990112;28;20475;-71
2023/07/05 00:54:42;;;;;;;6.90;3.00;;;;;;;17.86;100.00;99755.72;4978419;28;20122;-71
2023/07/05 00:57:17;;;;;;;5.72;3.35;;;;;;;17.81;100.00;99757.94;4975162;28;20066;-71
2023/07/05 00:59:52;;;;;;;5.45;3.55;;;;;;;17.69;100.00;99742.94;4980428;28;20050;-69
2023/07/05 01:02:19;;;;;;;5.35;3.33;;;;;;;17.77;100.00;99755.69;4980082;28;20047;-73
2023/07/05 01:04:46;;;;;;;4.30;3.20;;;;;;;17.74;100.00;99754.13;4994256;28;20175;-69
2023/07/05 01:07:14;;;;;;;6.15;3.33;;;;;;;17.65;100.00;99736.16;4997660;28;20069;-72
2023/07/05 01:09:47;;;;;;;5.63;3.42;;;;;;;17.57;100.00;99729.75;4982195;28;20122;-71
2023/07/05 01:12:33;;;;;;;6.47;3.95;;;;;;;17.51;100.00;99733.78;4974127;28;20145;-71
2023/07/05 01:15:14;;;;;;;5.45;3.47;;;;;;;17.47;100.00;99717.13;4985516;28;20133;-70
2023/07/05 01:17:53;;;;;;;5.78;3.85;;;;;;;17.51;100.00;99731.97;4976107;28;20380;-70
2023/07/05 01:20:26;;;;;;;7.57;4.22;;;;;;;17.50;100.00;99726.75;4974070;28;20046;-71
2023/07/05 01:23:24;;;;;;;8.73;3.90;;;;;;;17.47;100.00;99719.00;4989348;28;20046;-71
2023/07/05 01:26:19;;;;;;;5.10;3.90;;;;;;;17.54;100.00;99712.13;4967104;28;20134;-71
2023/07/05 01:28:55;;;;;;;5.68;3.88;;;;;;;17.59;100.00;99693.00;4966098;28;20089;-72
2023/07/05 01:31:35;;;;;;;5.65;3.33;;;;;;;17.51;100.00;99685.59;4975883;28;20055;-72
2023/07/05 01:34:14;;;;;;;5.07;3.97;;;;;;;17.51;100.00;99701.66;4988869;28;20045;-71
2023/07/05 01:36:41;;;;;;;7.38;4.38;;;;;;;17.48;100.00;99716.16;4979065;28;20411;-71
2023/07/05 01:39:08;;;;;;;6.45;4.20;;;;;;;17.54;100.00;99741.56;4961132;28;20047;-71
2023/07/05 01:41:35;;;;;;;7.22;4.40;;;;;;;17.54;100.00;99749.59;4970400;28;20051;-71
2023/07/05 01:44:03;;;;;;;8.85;4.30;;;;;;;17.46;100.00;99749.41;4979904;28;20054;-71
2023/07/05 01:46:40;;;;;;;7.18;4.45;;;;;;;17.47;100.00;99737.72;4956994;28;20077;-71
2023/07/05 01:49:27;;;;;;;5.95;3.70;;;;;;;17.44;100.00;99733.50;4958448;28;20527;-71
2023/07/05 01:52:12;;;;;;;7.05;3.85;;;;;;;17.52;100.00;99716.75;4968456;28;20143;-70
2023/07/05 01:55:10;;;;;;;5.25;3.75;;;;;;;17.60;100.00;99711.59;4991604;28;20128;-71
2023/07/05 01:57:51;;;;;;;6.38;3.45;;;;;;;17.64;100.00;99710.34;4975706;28;20536;-73
2023/07/05 02:00:20;;;;;;;6.10;4.05;;;;;;;17.69;100.00;99716.16;4973535;28;20064;-73
2023/07/05 02:02:53;;;;;;;8.52;3.72;;;;;;;17.58;100.00;99708.19;4969952;28;20042;-72
2023/07/05 02:05:23;;;;;;;4.53;3.40;;;;;;;17.67;100.00;99715.44;4965804;28;20189;-73
2023/07/05 02:07:51;;;;;;;5.68;3.28;;;;;;;17.55;100.00;99711.13;4965452;28;20057;-73
2023/07/05 02:10:18;;;;;;;5.18;3.15;;;;;;;17.51;100.00;99709.69;4977582;28;20519;-71
2023/07/05 02:12:44;;;;;;;5.65;3.35;;;;;;;17.54;100.00;99725.50;4987719;28;20222;-74
2023/07/05 02:15:11;;;;;;;6.43;3.15;;;;;;;17.45;100.00;99718.28;4967389;28;20556;-72
2023/07/05 02:17:38;;;;;;;4.95;3.20;;;;;;;17.45;100.00;99705.75;4966431;28;20052;-72
2023/07/05 02:20:06;;;;;;;5.53;2.95;;;;;;;17.53;100.00;99707.75;4976059;28;20684;-72
2023/07/05 02:22:32;;;;;;;7.53;2.80;;;;;;;17.61;100.00;99713.28;4973114;28;20046;-73
2023/07/05 02:24:59;;;;;;;4.95;2.65;;;;;;;17.58;100.00;99700.16;4965973;28;20057;-72
2023/07/05 02:27:28;;;;;;;5.43;2.90;;;;;;;17.65;100.00;99713.88;4956430;28;20067;-72
2023/07/05 02:29:56;;;;;;;4.50;3.10;;;;;;;17.62;100.00;99704.28;4987346;28;20042;-72
2023/07/05 02:32:23;;;;;;;3.78;2.67;;;;;;;17.54;100.00;99717.47;4986048;28;20125;-72
2023/07/05 02:34:50;;;;;;;5.88;2.97;;;;;;;17.50;100.00;99713.34;4980605;28;20072;-72
2023/07/05 02:37:19;;;;;;;4.85;2.80;;;;;;;17.51;100.00;99709.69;4976083;28;20415;-72
2023/07/05 02:39:53;;;;;;;5.32;2.88;;;;;;;17.58;100.00;99710.88;5002624;28;20404;-71
2023/07/05 02:42:20;;;;;;;5.07;2.75;;;;;;;17.63;100.00;99705.94;4978192;28;20598;-73
2023/07/05 02:44:48;;;;;;;4.13;2.70;;;;;;;17.66;100.00;99695.00;4971858;28;20126;-72
2023/07/05 02:47:18;;;;;;;4.38;2.65;;;;;;;17.70;100.00;99688.41;4950120;28;22404;-74
2023/07/05 02:49:44;;;;;;;4.45;2.67;;;;;;;17.71;100.00;99682.06;4973072;28;20063;-72
2023/07/05 02:52:13;;;;;;;4.35;2.33;;;;;;;17.81;100.00;99679.44;4975908;28;20102;-72
2023/07/05 02:54:40;;;;;;;2.88;2.40;;;;;;;17.82;100.00;99678.44;4967596;28;20051;-73
2023/07/05 02:57:09;;;;;;;2.25;1.80;;;;;;;17.80;100.00;99672.38;4958507;28;20065;-72
2023/07/05 02:59:36;;;;;;;4.45;2.33;;;;;;;17.71;100.00;99663.34;4971839;28;20051;-72
2023/07/05 03:02:03;;;;;;;4.05;2.67;;;;;;;17.75;100.00;99670.13;4972356;28;20065;-73
2023/07/05 03:04:30;;;;;;;3.28;2.15;;;;;;;17.78;100.00;99671.69;4967481;28;20067;-72
2023/07/05 03:06:57;;;;;;;4.57;2.65;;;;;;;17.68;100.00;99662.75;4972920;28;20067;-72
2023/07/05 03:09:25;;;;;;;4.30;2.33;;;;;;;17.67;100.00;99661.06;4967491;28;20135;-72
2023/07/05 03:11:51;;;;;;;2.80;2.25;;;;;;;17.70;100.00;99669.66;4972617;28;20089;-74
2023/07/05 03:14:21;;;;;;;3.42;2.30;;;;;;;17.68;100.00;99655.56;4990312;28;20081;-72
2023/07/05 03:16:47;;;;;;;3.08;2.00;;;;;;;17.60;100.00;99630.44;4976674;28;20049;-72
2023/07/05 03:19:14;;;;;;;4.15;2.30;;;;;;;17.73;100.00;99637.28;4979243;28;20063;-71
2023/07/05 03:21:43;;;;;;;4.80;2.42;;;;;;;17.83;100.00;99632.78;4998268;28;20106;-75
2023/07/05 03:24:10;;;;;;;7.13;2.28;;;;;;;17.92;100.00;99607.03;4989358;28;20042;-73
2023/07/05 03:26:38;;;;;;;3.08;1.90;;;;;;;17.86;100.00;99588.81;4963952;28;20057;-73
2023/07/05 03:29:05;;;;;;;3.45;2.10;;;;;;;17.83;100.00;99603.31;4986453;28;20043;-73
2023/07/05 03:31:35;;;;;;;5.97;2.70;;;;;;;17.82;100.00;99624.88;4964957;28;20579;-73
2023/07/05 03:34:01;;;;;;;4.13;2.30;;;;;;;17.81;100.00;99628.53;4974765;28;20051;-73
2023/07/05 03:36:29;;;;;;;4.25;2.50;;;;;;;17.79;100.00;99643.91;4978729;28;20059;-73
2023/07/05 03:38:57;;;;;;;3.20;2.08;;;;;;;17.68;100.00;99638.66;4986190;28;20121;-74
2023/07/05 03:41:24;;;;;;;4.43;2.53;;;;;;;17.71;100.00;99647.28;4981979;28;20066;-72
2023/07/05 03:43:57;;;;;;;5.40;2.60;;;;;;;17.74;100.00;99662.22;4964182;28;20057;-73
2023/07/05 03:46:24;;;;;;;4.97;2.50;;;;;;;17.69;100.00;99651.06;4968128;28;20054;-73
2023/07/05 03:48:52;;;;;;;5.10;2.63;;;;;;;17.75;100.00;99663.91;4970872;28;20034;-73
2023/07/05 03:51:21;;;;;;;3.20;2.33;;;;;;;17.75;100.00;99661.25;4972443;28;20106;-73
2023/07/05 03:53:50;;;;;;;4.50;2.60;;;;;;;17.74;100.00;99659.53;4960682;28;20476;-72
2023/07/05 03:56:19;;;;;;;5.07;2.50;;;;;;;17.78;100.00;99655.63;4981753;28;20463;-73
2023/07/05 03:58:47;;;;;;;2.92;2.40;;;;;;;17.94;100.00;99657.78;4956738;28;20176;-74
2023/07/05 04:01:25;;;;;;;4.55;2.40;;;;;;;17.96;100.00;99651.28;4973182;28;20052;-74
2023/07/05 04:03:56;;;;;;;5.03;2.40;;;;;;;17.95;100.00;99659.44;4974416;28;20250;-74
2023/07/05 04:06:25;;;;;;;3.47;2.35;;;;;;;17.87;100.00;99661.00;4976830;28;20054;-73
2023/07/05 04:08:52;;;;;;;6.28;2.72;;;;;;;17.86;100.00;99661.13;4957820;28;20047;-75
2023/07/05 04:11:20;;;;;;;4.22;2.50;;;;;;;17.94;100.00;99665.81;4960922;28;20058;-74
2023/07/05 04:13:48;;;;;;;6.03;2.65;;;;;;;18.03;100.00;99659.63;4971079;28;20065;-74
2023/07/05 04:16:22;;;;;;;3.45;2.53;;;;;;;18.14;100.00;99651.47;4958458;28;20566;-74
2023/07/05 04:18:54;;;;;;;3.65;2.45;;;;;;;18.20;100.00;99633.03;4973550;28;20039;-72
2023/07/05 04:21:23;;;;;;;3.65;2.45;;;;;;;18.37;100.00;99658.28;4959642;28;20055;-72
2023/07/05 04:23:49;;;;;;;4.05;2.65;;;;;;;18.35;100.00;99657.56;4960850;28;20431;-72
2023/07/05 04:26:19;;;;;;;3.63;2.50;;;;;;;18.34;100.00;99647.84;4959164;28;20113;-73
2023/07/05 04:28:47;;;;;;;4.40;2.78;;;;;;;18.44;100.00;99650.53;4979213;28;20147;-73
2023/07/05 04:31:19;;;;;;;2.55;2.22;;;;;;;18.46;100.00;99652.06;4971206;28;20053;-73
2023/07/05 04:33:46;;;;;;;5.25;2.33;;;;;;;18.48;100.00;99655.47;4969951;28;20124;-74
2023/07/05 04:36:13;;;;;;;5.35;2.78;;;;;;;18.55;100.00;99650.41;4973942;28;20511;-71
2023/07/05 04:38:55;;;;;;;3.92;2.67;;;;;;;18.43;100.00;99654.19;4979784;28;20039;-74
2023/07/05 04:41:24;;;;;;;4.22;2.80;;;;;;;18.38;100.00;99649.25;4976601;28;20507;-74
2023/07/05 04:43:53;;;;;;;3.13;2.50;;;;;;;18.42;100.00;99644.44;4974183;28;20073;-73
2023/07/05 04:46:20;;;;;;;4.13;2.53;;;;;;;18.38;100.00;99637.69;4962961;28;20189;-74
2023/07/05 04:48:48;;;;;;;3.78;2.28;;;;;;;18.42;100.00;99639.94;4976626;28;20069;-74
2023/07/05 04:51:15;;;;;;;2.95;2.30;;;;;;;18.45;100.00;99657.56;4991306;28;20046;-74
2023/07/05 04:53:42;;;;;;;5.60;2.60;;;;;;;18.46;100.00;99646.72;4987365;28;20057;-74
2023/07/05 04:56:14;;;;;;;4.30;2.60;;;;;;;18.59;100.00;99659.88;4976745;28;20053;-73
2023/07/05 04:58:41;;;;;;;4.63;2.20;;;;;;;18.61;100.00;99663.25;4963618;28;20070;-73
2023/07/05 05:01:10;;;;;;;3.88;2.78;;;;;;;18.66;100.00;99660.16;4971866;28;20158;-71
2023/07/05 05:03:37;;;;;;;6.35;2.25;;;;;;;18.61;100.00;99665.94;4967162;28;20038;-72
2023/07/05 05:06:04;;;;;;;3.42;2.38;;;;;;;18.57;100.00;99669.88;4989397;28;20054;-72
2023/07/05 05:08:31;;;;;;;5.18;2.40;;;;;;;18.51;100.00;99676.66;4966511;28;20047;-72
2023/07/05 05:11:00;;;;;;;5.63;2.95;;;;;;;18.50;100.00;99680.31;4994042;28;20050;-74
2023/07/05 05:13:29;;;;;;;6.38;2.55;;;;;;;18.46;100.00;99676.19;4983733;28;20058;-73
2023/07/05 05:15:58;;;;;;;6.80;2.65;;;;;;;18.50;100.00;99685.66;4984098;28;20043;-73
2023/07/05 05:18:28;;;;;;;4.32;2.22;;;;;;;18.60;100.00;99692.91;4967875;28;20495;-73
2023/07/05 05:20:54;;;;;;;3.50;2.30;;;;;;;18.39;100.00;99701.91;4994477;28;20515;-72
2023/07/05 05:23:21;;;;;;;4.70;2.67;;;;;;;18.38;100.00;99710.91;4979272;28;20055;-73
2023/07/05 05:25:49;;;;;;;5.85;2.42;;;;;;;18.45;100.00;99701.31;4977119;28;20042;-72
2023/07/05 05:28:17;;;;;;;4.47;2.78;;;;;;;18.56;100.00;99709.25;4952505;28;20042;-74
2023/07/05 05:30:45;;;;;;;3.10;2.70;;;;;;;18.56;100.00;99716.44;4976171;28;20065;-74
2023/07/05 05:33:14;;;;;;;6.72;2.65;;;;;;;18.55;100.00;99714.75;4973479;28;20062;-74
2023/07/05 05:35:48;;;;;;;4.45;2.20;;;;;;;18.52;100.00;99726.59;4992333;28;20061;-74
2023/07/05 05:38:19;;;;;;;3.80;2.40;;;;;;;18.48;100.00;99721.66;4963779;28;20082;-74
2023/07/05 05:40:48;;;;;;;6.40;2.47;;;;;;;18.35;100.00;99719.22;4967116;28;20057;-73
2023/07/05 05:43:17;;;;;;;2.80;2.10;;;;;;;18.28;100.00;99723.44;4974657;28;20051;-73
2023/07/05 05:45:44;;;;;;;4.15;2.55;;;;;;;18.19;100.00;99729.63;4968096;28;20046;-75
2023/07/05 05:48:10;;;;;;;6.38;2.42;;;;;;;17.92;100.00;99716.84;4960709;28;20054;-75
2023/07/05 05:50:38;;;;;;;4.05;2.33;;;;;;;18.01;100.00;99734.78;4950624;28;20050;-74
2023/07/05 05:53:04;;;;;;;6.43;2.25;;;;;;;17.94;100.00;99730.97;4963126;28;20061;-73
2023/07/05 05:55:33;;;;;;;5.47;2.63;;;;;;;17.92;100.00;99740.09;4977192;28;20047;-74
2023/07/05 05:58:00;;;;;;;8.15;2.40;;;;;;;17.85;100.00;99724.56;4977761;28;20512;-75
2023/07/05 06:00:28;;;;;;;3.72;2.22;;;;;;;17.90;100.00;99742.06;4987508;28;20073;-72
2023/07/05 06:02:57;;;;;;;6.95;2.30;;;;;;;18.00;100.00;99759.03;4971503;28;20530;-72
2023/07/05 06:05:24;;;;;;;4.15;2.35;;;;;;;17.98;100.00;99750.25;4974551;28;20086;-72
2023/07/05 06:07:52;;;;;;;4.72;2.30;;;;;;;18.08;100.00;99756.53;4965781;28;20424;-71
2023/07/05 06:10:21;;;;;;;3.42;2.10;;;;;;;18.09;100.00;99761.75;4971418;28;20049;-72
2023/07/05 06:12:48;;;;;;;3.60;2.08;;;;;;;18.24;100.00;99781.00;4970895;28;20166;-72
2023/07/05 06:15:14;;;;;;;3.17;2.05;;;;;;;18.18;100.00;99776.16;4972119;28;20042;-73
2023/07/05 06:17:41;;;;;;;3.78;2.13;;;;;;;18.02;100.00;99786.53;4965980;28;20427;-72
2023/07/05 06:20:14;;;;;;;3.08;1.90;;;;;;;17.96;100.00;99792.41;4981879;28;20046;-73
2023/07/05 06:22:41;;;;;;;3.47;2.17;;;;;;;17.90;100.00;99792.97;4984360;28;20066;-72
2023/07/05 06:25:11;;;;;;;4.22;2.47;;;;;;;17.81;100.00;99800.78;4968096;28;20043;-73
2023/07/05 06:27:39;;;;;;;4.30;2.47;;;;;;;17.75;100.00;99808.53;4959559;28;20126;-73
2023/07/05 06:30:15;;;;;;;3.88;2.22;;;;;;;17.97;100.00;99804.81;4961820;28;20043;-71
2023/07/05 06:32:43;;;;;;;3.47;2.20;;;;;;;18.14;100.00;99813.09;4968522;28;20042;-73
2023/07/05 06:35:11;;;;;;;5.18;2.70;;;;;;;18.28;100.00;99824.44;4976816;28;20043;-72
2023/07/05 06:37:37;;;;;;;3.42;2.78;;;;;;;18.31;100.00;99819.66;4978940;28;20067;-70
2023/07/05 06:40:06;;;;;;;4.28;2.40;;;;;;;18.88;100.00;99819.03;4982187;28;20058;-72
2023/07/05 06:42:33;;;;;;;6.20;3.13;;;;;;;19.23;100.00;99831.88;4967469;28;20054;-72
2023/07/05 06:45:00;;;;;;;5.88;2.80;;;;;;;19.49;98.08;99836.69;4963246;28;20043;-72
2023/07/05 06:47:29;;;;;;;6.03;3.15;;;;;;;19.41;96.86;99825.81;4969906;28;20051;-73
2023/07/05 06:49:59;;;;;;;8.23;3.65;;;;;;;19.42;92.60;99835.56;4965198;28;20051;-74
2023/07/05 06:52:26;;;;;;;5.73;3.77;;;;;;;19.21;91.96;99836.53;4972859;28;20503;-73
2023/07/05 06:54:53;;;;;;;6.95;3.78;;;;;;;19.17;95.14;99842.34;4995480;28;20047;-73
2023/07/05 06:57:19;;;;;;;6.78;3.60;;;;;;;19.17;92.01;99835.16;4982811;28;20046;-73
2023/07/05 06:59:46;;;;;;;5.65;3.80;;;;;;;19.36;85.58;99853.06;4978054;28;20050;-73
2023/07/05 07:02:13;;;;;;;6.72;3.63;;;;;;;19.49;81.93;99858.19;4971200;28;20141;-72
2023/07/05 07:04:40;;;;;;;5.18;3.55;;;;;;;19.86;81.30;99858.28;4968544;28;20263;-72
2023/07/05 07:07:11;;;;;;;6.40;3.63;;;;;;;19.85;78.44;99868.19;4971033;28;20062;-72
2023/07/05 07:09:40;;;;;;;5.60;3.70;;;;;;;19.51;77.96;99862.47;4965941;28;20043;-75
2023/07/05 07:12:11;;;;;;;4.13;3.15;;;;;;;19.31;67.14;99865.25;4969487;28;20075;-72
2023/07/05 07:14:37;;;;;;;6.13;3.50;;;;;;;19.31;67.66;99847.31;4973853;28;20047;-75
2023/07/05 07:17:04;;;;;;;4.95;3.30;;;;;;;19.45;56.89;99871.03;4974500;28;20499;-74
2023/07/05 07:19:31;;;;;;;6.00;3.35;;;;;;;18.75;57.98;99898.03;4956903;28;20094;-72
2023/07/05 07:21:58;;;;;;;5.30;3.67;;;;;;;18.31;60.30;99910.78;4987545;28;20125;-73
2023/07/05 07:24:28;;;;;;;6.97;3.30;;;;;;;17.94;63.15;99920.31;4991387;28;20434;-71
2023/07/05 07:26:55;;;;;;;6.18;3.85;;;;;;;17.72;66.64;99895.31;4967981;28;20767;-71
2023/07/05 07:29:22;;;;;;;5.38;3.65;;;;;;;17.82;66.35;99920.34;4966957;28;20399;-71
2023/07/05 07:31:49;;;;;;;5.82;3.28;;;;;;;17.88;64.56;99918.97;4976940;28;20554;-72
2023/07/05 07:34:19;;;;;;;8.30;3.60;;;;;;;18.16;63.24;99922.81;4976930;28;20105;-72
2023/07/05 07:36:46;;;;;;;5.63;3.33;;;;;;;18.67;62.12;99922.00;4963384;28;20081;-73
2023/07/05 07:39:15;;;;;;;5.97;3.25;;;;;;;19.20;58.33;99936.03;4969297;28;20054;-72
2023/07/05 07:41:41;;;;;;;5.75;3.40;;;;;;;19.24;60.04;99924.00;4981528;28;20050;-73
2023/07/05 07:44:11;;;;;;;5.70;3.13;;;;;;;19.10;55.49;99952.09;4971037;28;20049;-71
2023/07/05 07:46:46;;;;;;;4.30;3.10;;;;;;;18.70;56.36;99945.88;4985093;28;20141;-75
2023/07/05 07:49:14;;;;;;;8.15;3.78;;;;;;;18.65;57.02;99948.09;4963483;28;20051;-73
2023/07/05 07:51:44;;;;;;;5.28;3.45;;;;;;;18.84;56.60;99954.41;4986380;28;20046;-73
2023/07/05 07:54:17;;;;;;;4.80;3.15;;;;;;;18.78;58.22;99959.44;4966711;28;20046;-73
2023/07/05 07:56:45;;;;;;;6.25;3.45;;;;;;;19.16;57.32;99970.34;4986738;28;20058;-74
2023/07/05 07:59:12;;;;;;;6.50;3.38;;;;;;;19.33;57.07;99976.03;4964387;28;20416;-72
2023/07/05 08:01:40;;;;;;;5.22;3.50;;;;;;;19.62;54.70;99974.25;4986359;28;20053;-73
2023/07/05 08:04:11;;;;;;;5.97;3.47;;;;;;;19.81;54.25;99976.13;4974053;28;20074;-73
2023/07/05 08:06:46;;;;;;;6.18;3.42;;;;;;;19.69;53.57;99996.03;4971104;28;20427;-74
2023/07/05 08:09:15;;;;;;;5.47;3.47;;;;;;;19.00;56.38;99986.09;4976476;28;20050;-73
2023/07/05 08:11:42;;;;;;;5.68;3.33;;;;;;;18.59;60.16;100000.44;4971431;28;20070;-73
2023/07/05 08:14:13;;;;;;;5.57;3.20;;;;;;;18.13;59.00;100014.19;4983346;28;20051;-73
2023/07/05 08:16:40;;;;;;;7.85;3.20;;;;;;;17.81;59.97;100006.16;4978984;28;20467;-72
2023/07/05 08:19:07;;;;;;;4.10;2.20;;;;;;;17.72;55.83;100010.47;4970296;28;20137;-72
2023/07/05 08:21:36;;;;;;;4.55;2.28;;;;;;;17.97;55.78;100005.75;4962270;28;20089;-73
2023/07/05 08:24:04;;;;;;;4.00;2.47;;;;;;;18.54;53.11;100008.00;4984885;28;20051;-73
2023/07/05 08:26:51;;;;;;;4.03;2.33;;;;;;;19.02;51.04;100007.44;4993277;28;20047;-72
2023/07/05 08:29:18;;;;;;;6.32;2.58;;;;;;;19.38;51.13;100000.59;4965458;28;20064;-72
2023/07/05 08:31:48;;;;;;;4.60;2.60;;;;;;;19.27;50.50;100006.94;4974030;28;20050;-73
2023/07/05 08:34:15;;;;;;;5.50;2.55;;;;;;;18.85;50.64;99995.50;4999849;28;20056;-73
2023/07/05 08:36:43;;;;;;;6.50;2.53;;;;;;;18.64;51.75;100000.03;4974573;28;20051;-73
2023/07/05 08:39:12;;;;;;;4.60;2.20;;;;;;;18.86;50.72;99991.84;4976975;28;20038;-74
2023/07/05 08:41:56;;;;;;;4.18;2.60;;;;;;;19.08;50.93;100010.41;4987160;28;20065;-74
2023/07/05 08:44:46;;;;;;;4.53;2.03;;;;;;;19.49;49.24;100006.75;5000571;28;20050;-73
2023/07/05 08:47:42;;;;;;;3.78;2.30;;;;;;;19.95;48.27;99995.34;5014981;28;20067;-72
2023/07/05 08:50:21;;;;;;;6.45;2.40;;;;;;;20.02;47.26;100024.34;4981242;28;20054;-75
2023/07/05 08:53:18;;;;;;;4.85;2.20;;;;;;;19.55;47.85;100016.94;4985054;28;20074;-73
2023/07/05 08:56:15;;;;;;;4.32;2.15;;;;;;;19.48;48.16;100015.78;5003683;28;20039;-72
2023/07/05 08:58:47;;;;;;;6.32;1.98;;;;;;;19.49;47.69;100024.69;4996330;28;20055;-73
2023/07/05 09:01:37;;;;;;;4.57;1.80;;;;;;;19.75;47.80;100033.09;4993470;28;20128;-73
2023/07/05 09:04:22;;;;;;;4.15;1.83;;;;;;;20.11;46.63;100037.81;4976232;28;20849;-74
2023/07/05 09:07:24;;;;;;;2.85;1.90;;;;;;;20.67;45.51;100043.28;4984365;28;20380;-73
2023/07/05 09:09:55;;;;;;;3.97;1.70;;;;;;;20.82;44.31;100042.81;4979012;28;20070;-74
2023/07/05 09:12:34;;;;;;;3.83;1.70;;;;;;;21.19;43.42;100032.06;4991038;28;20097;-72
2023/07/05 09:15:10;;;;;;;2.75;1.52;;;;;;;21.31;42.45;100045.22;4991493;28;20050;-74
2023/07/05 09:17:37;;;;;;;4.32;1.80;;;;;;;20.64;43.52;100046.25;4979788;28;20051;-73
2023/07/05 09:20:20;;;;;;;4.05;1.50;;;;;;;20.18;45.13;100060.41;4965900;28;20053;-73
2023/07/05 09:22:51;;;;;;;5.57;1.67;;;;;;;19.82;45.15;100061.97;4983703;28;20163;-73
2023/07/05 09:25:22;;;;;;;5.70;1.77;;;;;;;20.09;45.55;100068.50;4978599;28;20101;-74
2023/07/05 09:28:23;;;;;;;2.05;1.42;;;;;;;20.00;45.61;100072.00;4968212;28;20526;-74
2023/07/05 09:30:51;;;;;;;4.38;1.58;;;;;;;19.99;47.09;100070.34;4982889;28;20051;-73
2023/07/05 09:33:38;;;;;;;3.30;1.38;;;;;;;20.20;46.38;100076.41;4999091;28;20482;-73
2023/07/05 09:36:22;;;;;;;2.33;1.65;;;;;;;20.08;45.40;100075.72;4978640;28;20050;-73
2023/07/05 09:39:06;;;;;;;7.28;1.80;;;;;;;19.98;46.56;100082.06;4982633;28;20050;-72
2023/07/05 09:41:36;;;;;;;3.28;1.80;;;;;;;19.68;48.01;100091.88;4986217;28;20081;-74
2023/07/05 09:44:04;;;;;;;6.97;2.25;;;;;;;19.61;47.76;100085.38;4961457;28;20169;-72
2023/07/05 09:46:34;;;;;;;3.30;1.77;;;;;;;19.60;47.57;100094.41;4987889;28;20086;-73
2023/07/05 09:49:01;;;;;;;4.75;1.60;;;;;;;19.44;47.61;100073.41;4967939;28;20093;-75
2023/07/05 09:51:34;;;;;;;3.17;1.42;;;;;;;19.92;47.76;100092.38;4968958;28;20104;-72
2023/07/05 09:54:07;;;;;;;3.10;1.23;;;;;;;20.24;45.84;100088.59;4994032;28;20049;-73
2023/07/05 09:57:04;;;;;;;5.32;1.60;;;;;;;20.48;45.90;100096.25;4978175;28;20069;-73
2023/07/05 09:59:33;;;;;;;4.85;1.60;;;;;;;20.34;45.94;100094.81;4981344;28;21330;-74
2023/07/05 10:02:14;;;;;;;2.40;1.45;;;;;;;20.39;46.35;100102.50;4968532;28;20050;-73
2023/07/05 10:04:53;;;;;;;3.83;1.40;;;;;;;20.54;45.69;100109.13;4988894;28;20054;-72
2023/07/05 10:07:24;;;;;;;4.28;1.52;;;;;;;20.46;45.32;100112.53;4989066;28;20057;-73
2023/07/05 10:10:01;;;;;;;3.08;1.30;;;;;;;20.01;45.63;100116.72;4967048;28;20123;-72
2023/07/05 10:12:41;;;;;;;6.47;1.70;;;;;;;19.71;46.70;100106.88;4970925;28;20448;-73
2023/07/05 10:15:24;;;;;;;6.10;1.88;;;;;;;19.54;47.20;100125.34;4980383;28;20137;-74
2023/07/05 10:17:53;;;;;;;2.40;1.42;;;;;;;19.80;47.17;100122.19;4959591;28;20052;-72
2023/07/05 10:20:31;;;;;;;3.15;1.40;;;;;;;20.18;47.03;100122.25;4964367;28;20776;-73
2023/07/05 10:23:16;;;;;;;3.78;1.60;;;;;;;20.79;46.27;100123.81;4969650;28;20081;-73
2023/07/05 10:25:44;;;;;;;4.53;1.90;;;;;;;20.70;45.21;100130.94;4972744;28;20046;-74
2023/07/05 10:28:21;;;;;;;4.68;2.10;;;;;;;20.62;43.87;100131.63;4996015;28;20046;-72
2023/07/05 10:30:56;;;;;;;6.68;1.95;;;;;;;20.93;43.80;100123.41;4977282;28;20062;-72
2023/07/05 10:33:31;;;;;;;3.58;1.33;;;;;;;21.41;43.78;100127.84;4986014;28;20118;-73
2023/07/05 10:35:58;;;;;;;2.88;1.48;;;;;;;21.76;42.53;100127.94;4976968;28;20054;-73
2023/07/05 10:38:31;;;;;;;2.53;1.20;;;;;;;21.52;41.97;100122.25;4981596;28;20043;-73
2023/07/05 10:41:26;;;;;;;2.47;1.52;;;;;;;21.53;42.22;100123.94;4962947;28;20109;-73
2023/07/05 10:44:02;;;;;;;3.80;1.40;;;;;;;21.56;41.73;100129.06;4972849;28;20123;-76
2023/07/05 10:46:38;;;;;;;3.38;1.40;;;;;;;21.34;41.77;100128.41;4980030;28;20053;-75
2023/07/05 10:49:10;;;;;;;3.67;1.38;;;;;;;21.22;41.97;100121.53;4988434;28;20043;-73
2023/07/05 10:51:40;;;;;;;4.28;1.50;;;;;;;21.22;42.31;100115.28;4972011;28;20038;-73
2023/07/05 10:54:21;;;;;;;;;;;;;;;21.33;43.04;100137.50;4981013;28;20070;-73
2023/07/05 10:56:48;;;;;;;2.03;1.40;;;;;;;21.53;41.80;100132.03;4976357;28;19922;-74
2023/07/05 10:59:30;;;;;;;1.50;0.93;;;;;;;21.13;42.21;100134.97;4972363;28;20193;-74
2023/07/05 11:02:37;;;;;;;6.78;1.58;;;;;;;21.25;41.67;100136.53;4989573;28;20392;-74
2023/07/05 11:05:19;;;;;;;3.67;1.20;;;;;;;21.53;41.40;100122.09;4975230;28;20418;-75
2023/07/05 11:07:50;;;;;;;2.60;1.30;;;;;;;21.63;42.02;100127.44;4984704;28;20060;-73
2023/07/05 11:10:19;;;;;;;2.30;1.35;;;;;;;21.35;41.30;100119.34;4982998;28;20067;-73
2023/07/05 11:12:47;;;;;;;3.55;1.40;;;;;;;21.46;42.59;100131.75;4985153;28;20062;-72
2023/07/05 11:15:16;;;;;;;3.78;1.33;;;;;;;21.58;41.27;100119.78;4999826;28;20117;-74
2023/07/05 11:17:44;;;;;;;2.72;1.33;;;;;;;21.86;41.15;100117.97;4978716;28;20122;-73
2023/07/05 11:20:36;;;;;;;3.10;1.40;;;;;;;22.37;40.11;100125.44;4989128;28;20109;-71
2023/07/05 11:23:03;;;;;;;2.28;1.00;;;;;;;22.30;40.50;100121.66;5002122;28;20055;-73
2023/07/05 11:25:58;;;;;;;3.47;1.15;;;;;;;22.03;41.23;100125.28;4999265;28;20046;-72
2023/07/05 11:28:46;;;;;;;2.85;1.13;;;;;;;22.05;40.19;100143.97;4990773;28;20050;-74
2023/07/05 11:31:27;;;;;;;5.38;1.10;;;;;;;21.66;40.44;100135.22;4972304;28;20042;-74
2023/07/05 11:34:20;;;;;;;2.65;1.00;;;;;;;21.58;41.20;100143.19;4973679;28;20152;-74
2023/07/05 11:36:50;;;;;;;2.58;1.10;;;;;;;21.37;41.02;100137.19;4991876;28;20038;-74
2023/07/05 11:39:42;;;;;;;2.55;0.98;;;;;;;20.93;41.31;100145.78;4976677;28;20086;-75
2023/07/05 11:42:17;;;;;;;3.08;0.90;;;;;;;20.96;41.54;100150.88;4971805;28;20622;-75
2023/07/05 11:45:10;;;;;;;2.88;1.05;;;;;;;21.11;41.60;100139.63;4995719;28;20550;-74
2023/07/05 11:47:36;;;;;;;3.47;1.70;;;;;;;21.49;42.38;100147.63;4992520;28;20116;-74
2023/07/05 11:50:13;;;;;;;2.63;0.98;;;;;;;21.61;40.51;100140.22;4984916;28;20527;-74